sensor_id;sensor_type;location;lat;lon;timestamp;P1;durP1;ratioP1;P2;durP2;ratioP2
42600;SDS011;28229;48.856;9.088;2023-04-22T00:01:10;4.40;;;4.00;;
42600;SDS011;28229;48.856;9.088;2023-04-22T00:03:37;4.43;;;4.03;;
42600;SDS011;28229;48.856;9.088;2023-04-22T00:06:04;4.50;;;4.10;;
42600;SDS011;28229;48.856;9.088;2023-04-22T00:08:30;4.90;;;4.40;;
42600;SDS011;28229;48.856;9.088;2023-04-22T00:10:57;5.07;;;4.13;;
42600;SDS011;28229;48.856;9.088;2023-04-22T00:13:23;4.73;;;4.23;;
42600;SDS011;28229;48.856;9.088;2023-04-22T00:15:49;4.60;;;4.20;;
42600;SDS011;28229;48.856;9.088;2023-04-22T00:18:16;4.67;;;4.27;;
42600;SDS011;28229;48.856;9.088;2023-04-22T00:20:42;4.13;;;3.83;;
42600;SDS011;28229;48.856;9.088;2023-04-22T00:23:08;4.87;;;4.47;;
42600;SDS011;28229;48.856;9.088;2023-04-22T00:25:36;5.60;;;4.30;;
42600;SDS011;28229;48.856;9.088;2023-04-22T00:28:03;4.60;;;4.20;;
42600;SDS011;28229;48.856;9.088;2023-04-22T00:30:29;5.00;;;4.50;;
42600;SDS011;28229;48.856;9.088;2023-04-22T00:32:55;4.57;;;4.17;;
42600;SDS011;28229;48.856;9.088;2023-04-22T00:35:22;5.03;;;4.53;;
42600;SDS011;28229;48.856;9.088;2023-04-22T00:37:48;5.40;;;4.90;;
42600;SDS011;28229;48.856;9.088;2023-04-22T00:40:14;5.00;;;4.60;;
42600;SDS011;28229;48.856;9.088;2023-04-22T00:42:41;6.03;;;4.47;;
42600;SDS011;28229;48.856;9.088;2023-04-22T00:45:11;6.10;;;4.80;;
42600;SDS011;28229;48.856;9.088;2023-04-22T00:47:43;5.33;;;4.60;;
42600;SDS011;28229;48.856;9.088;2023-04-22T00:50:10;4.87;;;4.40;;
42600;SDS011;28229;48.856;9.088;2023-04-22T00:52:36;5.93;;;4.53;;
42600;SDS011;28229;48.856;9.088;2023-04-22T00:55:03;4.80;;;4.40;;
42600;SDS011;28229;48.856;9.088;2023-04-22T00:57:30;4.80;;;4.40;;
42600;SDS011;28229;48.856;9.088;2023-04-22T00:59:57;4.60;;;4.20;;
42600;SDS011;28229;48.856;9.088;2023-04-22T01:02:24;5.13;;;4.67;;
42600;SDS011;28229;48.856;9.088;2023-04-22T01:04:51;5.10;;;4.57;;
42600;SDS011;28229;48.856;9.088;2023-04-22T01:07:19;4.40;;;4.10;;
42600;SDS011;28229;48.856;9.088;2023-04-22T01:09:46;5.33;;;4.83;;
42600;SDS011;28229;48.856;9.088;2023-04-22T01:12:12;5.50;;;4.50;;
42600;SDS011;28229;48.856;9.088;2023-04-22T01:14:40;5.73;;;5.20;;
42600;SDS011;28229;48.856;9.088;2023-04-22T01:17:06;5.60;;;5.00;;
42600;SDS011;28229;48.856;9.088;2023-04-22T01:19:34;5.53;;;5.03;;
42600;SDS011;28229;48.856;9.088;2023-04-22T01:22:01;6.20;;;5.40;;
42600;SDS011;28229;48.856;9.088;2023-04-22T01:24:28;5.43;;;4.83;;
42600;SDS011;28229;48.856;9.088;2023-04-22T01:26:54;6.40;;;4.93;;
42600;SDS011;28229;48.856;9.088;2023-04-22T01:29:20;6.30;;;4.60;;
42600;SDS011;28229;48.856;9.088;2023-04-22T01:31:47;4.60;;;4.20;;
42600;SDS011;28229;48.856;9.088;2023-04-22T01:34:13;5.20;;;4.70;;
42600;SDS011;28229;48.856;9.088;2023-04-22T01:36:40;5.70;;;5.10;;
42600;SDS011;28229;48.856;9.088;2023-04-22T01:39:06;5.27;;;4.40;;
42600;SDS011;28229;48.856;9.088;2023-04-22T01:41:33;6.83;;;5.27;;
42600;SDS011;28229;48.856;9.088;2023-04-22T01:44:00;5.27;;;4.77;;
42600;SDS011;28229;48.856;9.088;2023-04-22T01:46:28;5.63;;;4.63;;
42600;SDS011;28229;48.856;9.088;2023-04-22T01:48:54;5.37;;;4.10;;
42600;SDS011;28229;48.856;9.088;2023-04-22T01:51:22;4.63;;;3.57;;
42600;SDS011;28229;48.856;9.088;2023-04-22T01:53:51;4.20;;;3.90;;
42600;SDS011;28229;48.856;9.088;2023-04-22T01:56:17;6.57;;;4.33;;
42600;SDS011;28229;48.856;9.088;2023-04-22T01:58:43;4.90;;;4.40;;
42600;SDS011;28229;48.856;9.088;2023-04-22T02:01:10;4.57;;;4.17;;
42600;SDS011;28229;48.856;9.088;2023-04-22T02:03:38;4.70;;;4.30;;
42600;SDS011;28229;48.856;9.088;2023-04-22T02:06:04;4.73;;;4.33;;
42600;SDS011;28229;48.856;9.088;2023-04-22T02:08:30;4.87;;;4.33;;
42600;SDS011;28229;48.856;9.088;2023-04-22T02:10:56;4.67;;;4.27;;
42600;SDS011;28229;48.856;9.088;2023-04-22T02:13:25;6.30;;;4.00;;
42600;SDS011;28229;48.856;9.088;2023-04-22T02:15:59;4.87;;;4.33;;
42600;SDS011;28229;48.856;9.088;2023-04-22T02:18:25;4.10;;;3.70;;
42600;SDS011;28229;48.856;9.088;2023-04-22T02:20:52;4.00;;;3.70;;
42600;SDS011;28229;48.856;9.088;2023-04-22T02:23:18;4.23;;;3.70;;
42600;SDS011;28229;48.856;9.088;2023-04-22T02:25:48;6.07;;;4.40;;
42600;SDS011;28229;48.856;9.088;2023-04-22T02:28:17;4.73;;;4.07;;
42600;SDS011;28229;48.856;9.088;2023-04-22T02:30:44;4.70;;;4.20;;
42600;SDS011;28229;48.856;9.088;2023-04-22T02:33:11;4.50;;;4.10;;
42600;SDS011;28229;48.856;9.088;2023-04-22T02:35:37;4.87;;;4.27;;
42600;SDS011;28229;48.856;9.088;2023-04-22T02:38:03;4.77;;;4.13;;
42600;SDS011;28229;48.856;9.088;2023-04-22T02:40:29;5.17;;;4.40;;
42600;SDS011;28229;48.856;9.088;2023-04-22T02:42:55;6.10;;;4.73;;
42600;SDS011;28229;48.856;9.088;2023-04-22T02:45:22;5.53;;;4.30;;
42600;SDS011;28229;48.856;9.088;2023-04-22T02:47:48;6.30;;;4.70;;
42600;SDS011;28229;48.856;9.088;2023-04-22T02:50:14;6.57;;;4.90;;
42600;SDS011;28229;48.856;9.088;2023-04-22T02:52:41;4.80;;;4.30;;
42600;SDS011;28229;48.856;9.088;2023-04-22T02:55:07;4.47;;;4.10;;
42600;SDS011;28229;48.856;9.088;2023-04-22T02:57:34;5.00;;;4.50;;
42600;SDS011;28229;48.856;9.088;2023-04-22T03:00:00;4.77;;;4.27;;
42600;SDS011;28229;48.856;9.088;2023-04-22T03:02:27;4.60;;;4.20;;
42600;SDS011;28229;48.856;9.088;2023-04-22T03:05:05;5.37;;;4.30;;
42600;SDS011;28229;48.856;9.088;2023-04-22T03:07:32;4.73;;;4.27;;
42600;SDS011;28229;48.856;9.088;2023-04-22T03:09:59;5.67;;;4.20;;
42600;SDS011;28229;48.856;9.088;2023-04-22T03:12:25;5.37;;;4.50;;
42600;SDS011;28229;48.856;9.088;2023-04-22T03:14:51;4.73;;;4.27;;
42600;SDS011;28229;48.856;9.088;2023-04-22T03:17:19;4.87;;;4.40;;
42600;SDS011;28229;48.856;9.088;2023-04-22T03:19:46;5.70;;;4.63;;
42600;SDS011;28229;48.856;9.088;2023-04-22T03:22:13;5.63;;;4.43;;
42600;SDS011;28229;48.856;9.088;2023-04-22T03:24:40;5.70;;;5.13;;
42600;SDS011;28229;48.856;9.088;2023-04-22T03:27:16;5.63;;;4.97;;
42600;SDS011;28229;48.856;9.088;2023-04-22T03:29:43;6.77;;;6.07;;
42600;SDS011;28229;48.856;9.088;2023-04-22T03:32:09;7.73;;;6.47;;
42600;SDS011;28229;48.856;9.088;2023-04-22T03:34:36;6.60;;;5.73;;
42600;SDS011;28229;48.856;9.088;2023-04-22T03:37:02;6.20;;;5.60;;
42600;SDS011;28229;48.856;9.088;2023-04-22T03:39:28;7.00;;;5.93;;
42600;SDS011;28229;48.856;9.088;2023-04-22T03:41:55;7.77;;;6.10;;
42600;SDS011;28229;48.856;9.088;2023-04-22T03:44:21;7.10;;;6.40;;
42600;SDS011;28229;48.856;9.088;2023-04-22T03:46:48;7.37;;;6.67;;
42600;SDS011;28229;48.856;9.088;2023-04-22T03:49:19;6.67;;;6.03;;
42600;SDS011;28229;48.856;9.088;2023-04-22T03:51:46;6.93;;;5.90;;
42600;SDS011;28229;48.856;9.088;2023-04-22T03:54:16;7.40;;;6.60;;
42600;SDS011;28229;48.856;9.088;2023-04-22T03:56:47;6.40;;;5.80;;
42600;SDS011;28229;48.856;9.088;2023-04-22T03:59:14;6.57;;;5.90;;
42600;SDS011;28229;48.856;9.088;2023-04-22T04:01:41;6.43;;;5.83;;
42600;SDS011;28229;48.856;9.088;2023-04-22T04:04:08;7.47;;;6.20;;
42600;SDS011;28229;48.856;9.088;2023-04-22T04:06:41;6.93;;;5.60;;
42600;SDS011;28229;48.856;9.088;2023-04-22T04:09:07;5.97;;;5.47;;
42600;SDS011;28229;48.856;9.088;2023-04-22T04:11:35;8.20;;;6.20;;
42600;SDS011;28229;48.856;9.088;2023-04-22T04:14:03;6.13;;;5.53;;
42600;SDS011;28229;48.856;9.088;2023-04-22T04:16:36;6.43;;;5.80;;
42600;SDS011;28229;48.856;9.088;2023-04-22T04:19:10;6.53;;;5.93;;
42600;SDS011;28229;48.856;9.088;2023-04-22T04:21:37;7.90;;;5.27;;
42600;SDS011;28229;48.856;9.088;2023-04-22T04:24:06;6.20;;;5.60;;
42600;SDS011;28229;48.856;9.088;2023-04-22T04:26:36;7.10;;;5.97;;
42600;SDS011;28229;48.856;9.088;2023-04-22T04:29:09;8.20;;;5.93;;
42600;SDS011;28229;48.856;9.088;2023-04-22T04:31:39;7.07;;;5.87;;
42600;SDS011;28229;48.856;9.088;2023-04-22T04:34:06;5.80;;;5.20;;
42600;SDS011;28229;48.856;9.088;2023-04-22T04:36:34;6.50;;;5.90;;
42600;SDS011;28229;48.856;9.088;2023-04-22T04:39:11;6.10;;;5.50;;
42600;SDS011;28229;48.856;9.088;2023-04-22T04:41:38;7.33;;;5.63;;
42600;SDS011;28229;48.856;9.088;2023-04-22T04:44:06;6.40;;;5.80;;
42600;SDS011;28229;48.856;9.088;2023-04-22T04:46:36;6.97;;;6.27;;
42600;SDS011;28229;48.856;9.088;2023-04-22T04:49:03;8.17;;;6.30;;
42600;SDS011;28229;48.856;9.088;2023-04-22T04:51:35;5.50;;;5.00;;
42600;SDS011;28229;48.856;9.088;2023-04-22T04:54:01;7.07;;;5.30;;
42600;SDS011;28229;48.856;9.088;2023-04-22T04:56:33;6.93;;;6.33;;
42600;SDS011;28229;48.856;9.088;2023-04-22T04:59:00;8.43;;;6.30;;
42600;SDS011;28229;48.856;9.088;2023-04-22T05:01:27;6.20;;;5.20;;
42600;SDS011;28229;48.856;9.088;2023-04-22T05:03:58;5.53;;;4.63;;
42600;SDS011;28229;48.856;9.088;2023-04-22T05:06:27;5.20;;;4.13;;
42600;SDS011;28229;48.856;9.088;2023-04-22T05:08:59;5.13;;;4.37;;
42600;SDS011;28229;48.856;9.088;2023-04-22T05:11:25;4.40;;;4.00;;
42600;SDS011;28229;48.856;9.088;2023-04-22T05:13:53;4.23;;;3.73;;
42600;SDS011;28229;48.856;9.088;2023-04-22T05:16:25;4.60;;;4.20;;
42600;SDS011;28229;48.856;9.088;2023-04-22T05:18:52;4.90;;;4.50;;
42600;SDS011;28229;48.856;9.088;2023-04-22T05:21:18;5.50;;;4.50;;
42600;SDS011;28229;48.856;9.088;2023-04-22T05:23:45;4.63;;;4.23;;
42600;SDS011;28229;48.856;9.088;2023-04-22T05:26:12;4.50;;;4.10;;
42600;SDS011;28229;48.856;9.088;2023-04-22T05:28:41;4.40;;;4.00;;
42600;SDS011;28229;48.856;9.088;2023-04-22T05:31:07;4.63;;;4.23;;
42600;SDS011;28229;48.856;9.088;2023-04-22T05:33:34;6.40;;;4.10;;
42600;SDS011;28229;48.856;9.088;2023-04-22T05:36:00;4.20;;;3.90;;
42600;SDS011;28229;48.856;9.088;2023-04-22T05:38:27;4.40;;;4.10;;
42600;SDS011;28229;48.856;9.088;2023-04-22T05:40:55;4.93;;;4.43;;
42600;SDS011;28229;48.856;9.088;2023-04-22T05:43:21;4.67;;;4.27;;
42600;SDS011;28229;48.856;9.088;2023-04-22T05:45:59;5.73;;;4.20;;
42600;SDS011;28229;48.856;9.088;2023-04-22T05:48:25;5.37;;;4.83;;
42600;SDS011;28229;48.856;9.088;2023-04-22T05:51:02;4.93;;;4.50;;
42600;SDS011;28229;48.856;9.088;2023-04-22T05:53:29;5.47;;;4.97;;
42600;SDS011;28229;48.856;9.088;2023-04-22T05:55:58;5.57;;;5.03;;
42600;SDS011;28229;48.856;9.088;2023-04-22T05:58:24;6.40;;;5.50;;
42600;SDS011;28229;48.856;9.088;2023-04-22T06:01:06;7.53;;;5.00;;
42600;SDS011;28229;48.856;9.088;2023-04-22T06:03:46;7.47;;;5.17;;
42600;SDS011;28229;48.856;9.088;2023-04-22T06:06:12;5.97;;;5.27;;
42600;SDS011;28229;48.856;9.088;2023-04-22T06:08:38;6.87;;;5.53;;
42600;SDS011;28229;48.856;9.088;2023-04-22T06:11:05;6.30;;;5.60;;
42600;SDS011;28229;48.856;9.088;2023-04-22T06:13:34;6.37;;;5.70;;
42600;SDS011;28229;48.856;9.088;2023-04-22T06:16:00;5.80;;;5.10;;
42600;SDS011;28229;48.856;9.088;2023-04-22T06:18:26;5.77;;;5.23;;
42600;SDS011;28229;48.856;9.088;2023-04-22T06:20:53;6.37;;;5.73;;
42600;SDS011;28229;48.856;9.088;2023-04-22T06:23:21;6.63;;;5.80;;
42600;SDS011;28229;48.856;9.088;2023-04-22T06:25:47;8.33;;;5.60;;
42600;SDS011;28229;48.856;9.088;2023-04-22T06:28:14;7.90;;;6.20;;
42600;SDS011;28229;48.856;9.088;2023-04-22T06:30:40;6.67;;;5.97;;
42600;SDS011;28229;48.856;9.088;2023-04-22T06:33:07;6.40;;;5.80;;
42600;SDS011;28229;48.856;9.088;2023-04-22T06:35:34;6.83;;;5.93;;
42600;SDS011;28229;48.856;9.088;2023-04-22T06:38:00;6.20;;;5.60;;
42600;SDS011;28229;48.856;9.088;2023-04-22T06:40:32;5.97;;;5.37;;
42600;SDS011;28229;48.856;9.088;2023-04-22T06:43:30;6.43;;;5.83;;
42600;SDS011;28229;48.856;9.088;2023-04-22T06:46:09;6.00;;;5.43;;
42600;SDS011;28229;48.856;9.088;2023-04-22T06:48:48;5.70;;;5.17;;
42600;SDS011;28229;48.856;9.088;2023-04-22T06:51:22;6.37;;;5.70;;
42600;SDS011;28229;48.856;9.088;2023-04-22T06:53:49;6.30;;;5.33;;
42600;SDS011;28229;48.856;9.088;2023-04-22T06:56:16;6.00;;;5.40;;
42600;SDS011;28229;48.856;9.088;2023-04-22T06:58:43;5.50;;;5.00;;
42600;SDS011;28229;48.856;9.088;2023-04-22T07:01:09;6.47;;;5.23;;
42600;SDS011;28229;48.856;9.088;2023-04-22T07:03:37;7.20;;;6.50;;
42600;SDS011;28229;48.856;9.088;2023-04-22T07:06:08;8.67;;;7.80;;
42600;SDS011;28229;48.856;9.088;2023-04-22T07:08:34;8.73;;;7.33;;
42600;SDS011;28229;48.856;9.088;2023-04-22T07:11:01;7.63;;;6.20;;
42600;SDS011;28229;48.856;9.088;2023-04-22T07:13:41;6.00;;;5.50;;
42600;SDS011;28229;48.856;9.088;2023-04-22T07:16:07;5.33;;;4.83;;
42600;SDS011;28229;48.856;9.088;2023-04-22T07:18:35;6.07;;;4.90;;
42600;SDS011;28229;48.856;9.088;2023-04-22T07:21:02;5.73;;;4.70;;
42600;SDS011;28229;48.856;9.088;2023-04-22T07:23:28;6.70;;;4.90;;
42600;SDS011;28229;48.856;9.088;2023-04-22T07:25:54;5.93;;;4.77;;
42600;SDS011;28229;48.856;9.088;2023-04-22T07:28:21;5.50;;;5.00;;
42600;SDS011;28229;48.856;9.088;2023-04-22T07:30:47;4.97;;;4.47;;
42600;SDS011;28229;48.856;9.088;2023-04-22T07:33:13;7.47;;;5.63;;
42600;SDS011;28229;48.856;9.088;2023-04-22T07:35:39;7.53;;;5.37;;
42600;SDS011;28229;48.856;9.088;2023-04-22T07:38:06;5.53;;;5.03;;
42600;SDS011;28229;48.856;9.088;2023-04-22T07:40:32;6.77;;;5.53;;
42600;SDS011;28229;48.856;9.088;2023-04-22T07:42:58;5.83;;;5.27;;
42600;SDS011;28229;48.856;9.088;2023-04-22T07:45:26;5.47;;;4.97;;
42600;SDS011;28229;48.856;9.088;2023-04-22T07:47:52;6.73;;;4.87;;
42600;SDS011;28229;48.856;9.088;2023-04-22T07:50:18;5.27;;;3.90;;
42600;SDS011;28229;48.856;9.088;2023-04-22T07:52:44;5.07;;;4.60;;
42600;SDS011;28229;48.856;9.088;2023-04-22T07:55:11;5.40;;;4.83;;
42600;SDS011;28229;48.856;9.088;2023-04-22T07:57:37;5.50;;;5.00;;
42600;SDS011;28229;48.856;9.088;2023-04-22T08:00:05;4.97;;;4.33;;
42600;SDS011;28229;48.856;9.088;2023-04-22T08:02:37;5.80;;;4.43;;
42600;SDS011;28229;48.856;9.088;2023-04-22T08:05:04;4.57;;;4.10;;
42600;SDS011;28229;48.856;9.088;2023-04-22T08:07:31;4.50;;;4.10;;
42600;SDS011;28229;48.856;9.088;2023-04-22T08:09:57;6.13;;;4.30;;
42600;SDS011;28229;48.856;9.088;2023-04-22T08:12:23;4.77;;;4.00;;
42600;SDS011;28229;48.856;9.088;2023-04-22T08:14:49;4.67;;;4.10;;
42600;SDS011;28229;48.856;9.088;2023-04-22T08:17:16;4.73;;;4.33;;
42600;SDS011;28229;48.856;9.088;2023-04-22T08:19:46;4.53;;;4.13;;
42600;SDS011;28229;48.856;9.088;2023-04-22T08:22:13;4.63;;;3.93;;
42600;SDS011;28229;48.856;9.088;2023-04-22T08:24:40;6.33;;;4.90;;
42600;SDS011;28229;48.856;9.088;2023-04-22T08:27:07;5.43;;;3.80;;
42600;SDS011;28229;48.856;9.088;2023-04-22T08:29:33;4.60;;;3.13;;
42600;SDS011;28229;48.856;9.088;2023-04-22T08:31:59;4.60;;;3.83;;
42600;SDS011;28229;48.856;9.088;2023-04-22T08:34:26;3.90;;;3.57;;
42600;SDS011;28229;48.856;9.088;2023-04-22T08:36:52;3.20;;;3.00;;
42600;SDS011;28229;48.856;9.088;2023-04-22T08:39:19;2.80;;;2.60;;
42600;SDS011;28229;48.856;9.088;2023-04-22T08:41:45;2.80;;;2.60;;
42600;SDS011;28229;48.856;9.088;2023-04-22T08:44:13;3.83;;;3.10;;
42600;SDS011;28229;48.856;9.088;2023-04-22T08:46:39;3.37;;;3.07;;
42600;SDS011;28229;48.856;9.088;2023-04-22T08:49:06;3.20;;;2.90;;
42600;SDS011;28229;48.856;9.088;2023-04-22T08:51:33;3.07;;;2.70;;
42600;SDS011;28229;48.856;9.088;2023-04-22T08:54:00;3.53;;;2.90;;
42600;SDS011;28229;48.856;9.088;2023-04-22T08:56:27;4.17;;;2.90;;
42600;SDS011;28229;48.856;9.088;2023-04-22T08:58:54;3.93;;;2.40;;
42600;SDS011;28229;48.856;9.088;2023-04-22T09:01:21;2.30;;;2.10;;
42600;SDS011;28229;48.856;9.088;2023-04-22T09:03:48;2.50;;;2.30;;
42600;SDS011;28229;48.856;9.088;2023-04-22T09:06:14;2.73;;;2.40;;
42600;SDS011;28229;48.856;9.088;2023-04-22T09:08:45;2.87;;;2.30;;
42600;SDS011;28229;48.856;9.088;2023-04-22T09:11:11;3.00;;;2.70;;
42600;SDS011;28229;48.856;9.088;2023-04-22T09:13:38;2.97;;;2.50;;
42600;SDS011;28229;48.856;9.088;2023-04-22T09:16:05;2.03;;;1.93;;
42600;SDS011;28229;48.856;9.088;2023-04-22T09:18:38;2.40;;;2.20;;
42600;SDS011;28229;48.856;9.088;2023-04-22T09:21:06;3.33;;;2.30;;
42600;SDS011;28229;48.856;9.088;2023-04-22T09:23:32;3.03;;;2.20;;
42600;SDS011;28229;48.856;9.088;2023-04-22T09:25:59;3.10;;;1.90;;
42600;SDS011;28229;48.856;9.088;2023-04-22T09:28:26;3.20;;;2.43;;
42600;SDS011;28229;48.856;9.088;2023-04-22T09:30:52;2.67;;;2.30;;
42600;SDS011;28229;48.856;9.088;2023-04-22T09:33:18;2.90;;;2.60;;
42600;SDS011;28229;48.856;9.088;2023-04-22T09:35:44;3.40;;;2.10;;
42600;SDS011;28229;48.856;9.088;2023-04-22T09:38:11;2.30;;;2.10;;
42600;SDS011;28229;48.856;9.088;2023-04-22T09:40:40;3.63;;;2.40;;
42600;SDS011;28229;48.856;9.088;2023-04-22T09:43:08;3.83;;;2.70;;
42600;SDS011;28229;48.856;9.088;2023-04-22T09:45:39;2.43;;;2.23;;
42600;SDS011;28229;48.856;9.088;2023-04-22T09:48:10;3.33;;;2.40;;
42600;SDS011;28229;48.856;9.088;2023-04-22T09:50:38;2.90;;;2.60;;
42600;SDS011;28229;48.856;9.088;2023-04-22T09:53:08;4.37;;;2.67;;
42600;SDS011;28229;48.856;9.088;2023-04-22T09:55:38;2.83;;;2.53;;
42600;SDS011;28229;48.856;9.088;2023-04-22T09:58:10;3.03;;;2.50;;
42600;SDS011;28229;48.856;9.088;2023-04-22T10:03:30;2.77;;;2.43;;
42600;SDS011;28229;48.856;9.088;2023-04-22T10:05:57;2.70;;;2.27;;
42600;SDS011;28229;48.856;9.088;2023-04-22T10:08:26;2.43;;;2.23;;
42600;SDS011;28229;48.856;9.088;2023-04-22T10:10:53;2.70;;;2.50;;
42600;SDS011;28229;48.856;9.088;2023-04-22T10:13:19;3.93;;;2.30;;
42600;SDS011;28229;48.856;9.088;2023-04-22T10:15:52;3.10;;;2.50;;
42600;SDS011;28229;48.856;9.088;2023-04-22T10:18:23;3.30;;;2.30;;
42600;SDS011;28229;48.856;9.088;2023-04-22T10:20:51;2.30;;;2.10;;
42600;SDS011;28229;48.856;9.088;2023-04-22T10:23:20;2.43;;;2.23;;
42600;SDS011;28229;48.856;9.088;2023-04-22T10:25:47;2.90;;;1.80;;
42600;SDS011;28229;48.856;9.088;2023-04-22T10:28:16;2.23;;;2.10;;
42600;SDS011;28229;48.856;9.088;2023-04-22T10:30:42;1.93;;;1.83;;
42600;SDS011;28229;48.856;9.088;2023-04-22T10:41:15;2.72;;;2.40;;
42600;SDS011;28229;48.856;9.088;2023-04-22T10:43:50;2.92;;;2.20;;
42600;SDS011;28229;48.856;9.088;2023-04-22T10:49:06;2.10;;;1.83;;
42600;SDS011;28229;48.856;9.088;2023-04-22T10:57:09;1.92;;;1.80;;
42600;SDS011;28229;48.856;9.088;2023-04-22T10:59:46;1.75;;;1.63;;
42600;SDS011;28229;48.856;9.088;2023-04-22T11:02:14;3.25;;;1.67;;
42600;SDS011;28229;48.856;9.088;2023-04-22T11:04:41;3.30;;;1.67;;
42600;SDS011;28229;48.856;9.088;2023-04-22T11:09:47;1.65;;;1.50;;
42600;SDS011;28229;48.856;9.088;2023-04-22T11:15:03;2.43;;;1.43;;
42600;SDS011;28229;48.856;9.088;2023-04-22T11:17:30;3.67;;;1.80;;
42600;SDS011;28229;48.856;9.088;2023-04-22T11:19:57;2.70;;;1.50;;
42600;SDS011;28229;48.856;9.088;2023-04-22T11:22:24;2.28;;;1.70;;
42600;SDS011;28229;48.856;9.088;2023-04-22T11:24:54;3.20;;;1.50;;
42600;SDS011;28229;48.856;9.088;2023-04-22T11:27:20;2.40;;;1.70;;
42600;SDS011;28229;48.856;9.088;2023-04-22T11:32:33;2.75;;;1.55;;
42600;SDS011;28229;48.856;9.088;2023-04-22T11:35:03;1.60;;;1.50;;
42600;SDS011;28229;48.856;9.088;2023-04-22T11:37:38;3.72;;;1.80;;
42600;SDS011;28229;48.856;9.088;2023-04-22T11:40:32;2.75;;;1.80;;
42600;SDS011;28229;48.856;9.088;2023-04-22T11:43:00;1.98;;;1.52;;
42600;SDS011;28229;48.856;9.088;2023-04-22T11:45:34;2.97;;;1.63;;
42600;SDS011;28229;48.856;9.088;2023-04-22T11:48:01;1.73;;;1.63;;
42600;SDS011;28229;48.856;9.088;2023-04-22T11:50:30;1.95;;;1.80;;
42600;SDS011;28229;48.856;9.088;2023-04-22T11:52:59;4.25;;;1.42;;
42600;SDS011;28229;48.856;9.088;2023-04-22T11:55:34;1.50;;;1.40;;
42600;SDS011;28229;48.856;9.088;2023-04-22T11:58:12;2.00;;;1.77;;
42600;SDS011;28229;48.856;9.088;2023-04-22T12:00:49;2.00;;;1.65;;
42600;SDS011;28229;48.856;9.088;2023-04-22T12:05:45;2.08;;;1.70;;
42600;SDS011;28229;48.856;9.088;2023-04-22T12:08:19;3.83;;;1.70;;
42600;SDS011;28229;48.856;9.088;2023-04-22T12:10:49;2.28;;;1.80;;
42600;SDS011;28229;48.856;9.088;2023-04-22T12:13:18;1.88;;;1.63;;
42600;SDS011;28229;48.856;9.088;2023-04-22T12:15:53;2.42;;;1.63;;
42600;SDS011;28229;48.856;9.088;2023-04-22T12:18:33;2.03;;;1.60;;
42600;SDS011;28229;48.856;9.088;2023-04-22T12:21:11;2.25;;;1.50;;
42600;SDS011;28229;48.856;9.088;2023-04-22T12:23:42;2.25;;;1.50;;
42600;SDS011;28229;48.856;9.088;2023-04-22T12:26:14;2.08;;;1.50;;
42600;SDS011;28229;48.856;9.088;2023-04-22T12:28:41;2.67;;;1.63;;
42600;SDS011;28229;48.856;9.088;2023-04-22T12:31:08;2.63;;;1.77;;
42600;SDS011;28229;48.856;9.088;2023-04-22T12:33:36;2.20;;;1.80;;
42600;SDS011;28229;48.856;9.088;2023-04-22T12:36:03;3.88;;;1.88;;
42600;SDS011;28229;48.856;9.088;2023-04-22T12:38:30;2.40;;;1.70;;
42600;SDS011;28229;48.856;9.088;2023-04-22T12:40:57;5.00;;;2.00;;
42600;SDS011;28229;48.856;9.088;2023-04-22T12:43:23;3.10;;;1.50;;
42600;SDS011;28229;48.856;9.088;2023-04-22T12:45:50;4.55;;;1.70;;
42600;SDS011;28229;48.856;9.088;2023-04-22T12:48:16;8.52;;;2.10;;
42600;SDS011;28229;48.856;9.088;2023-04-22T12:50:42;4.30;;;1.90;;
42600;SDS011;28229;48.856;9.088;2023-04-22T12:53:09;2.00;;;1.48;;
42600;SDS011;28229;48.856;9.088;2023-04-22T12:55:35;4.18;;;1.70;;
42600;SDS011;28229;48.856;9.088;2023-04-22T12:58:01;3.10;;;2.10;;
42600;SDS011;28229;48.856;9.088;2023-04-22T13:00:29;3.03;;;2.10;;
42600;SDS011;28229;48.856;9.088;2023-04-22T13:02:55;2.53;;;2.10;;
42600;SDS011;28229;48.856;9.088;2023-04-22T13:05:21;3.10;;;2.30;;
42600;SDS011;28229;48.856;9.088;2023-04-22T13:07:48;4.80;;;2.60;;
42600;SDS011;28229;48.856;9.088;2023-04-22T13:10:14;2.53;;;2.17;;
42600;SDS011;28229;48.856;9.088;2023-04-22T13:12:42;2.30;;;2.10;;
42600;SDS011;28229;48.856;9.088;2023-04-22T13:15:09;3.10;;;2.20;;
42600;SDS011;28229;48.856;9.088;2023-04-22T13:17:36;4.53;;;2.77;;
42600;SDS011;28229;48.856;9.088;2023-04-22T13:20:03;4.45;;;2.30;;
42600;SDS011;28229;48.856;9.088;2023-04-22T13:22:31;2.50;;;2.30;;
42600;SDS011;28229;48.856;9.088;2023-04-22T13:25:00;2.30;;;2.10;;
42600;SDS011;28229;48.856;9.088;2023-04-22T13:27:34;2.50;;;1.87;;
42600;SDS011;28229;48.856;9.088;2023-04-22T13:30:01;2.23;;;2.00;;
42600;SDS011;28229;48.856;9.088;2023-04-22T13:32:28;2.53;;;1.93;;
42600;SDS011;28229;48.856;9.088;2023-04-22T13:34:55;3.67;;;2.33;;
42600;SDS011;28229;48.856;9.088;2023-04-22T13:37:21;2.57;;;1.80;;
42600;SDS011;28229;48.856;9.088;2023-04-22T13:39:47;2.60;;;1.80;;
42600;SDS011;28229;48.856;9.088;2023-04-22T13:42:14;2.50;;;1.80;;
42600;SDS011;28229;48.856;9.088;2023-04-22T13:44:40;2.90;;;1.90;;
42600;SDS011;28229;48.856;9.088;2023-04-22T13:47:06;2.03;;;1.80;;
42600;SDS011;28229;48.856;9.088;2023-04-22T13:49:33;2.53;;;1.70;;
42600;SDS011;28229;48.856;9.088;2023-04-22T13:51:59;1.80;;;1.70;;
42600;SDS011;28229;48.856;9.088;2023-04-22T13:54:25;2.03;;;1.90;;
42600;SDS011;28229;48.856;9.088;2023-04-22T13:56:52;3.30;;;2.00;;
42600;SDS011;28229;48.856;9.088;2023-04-22T13:59:19;2.90;;;1.90;;
42600;SDS011;28229;48.856;9.088;2023-04-22T14:01:45;2.60;;;2.00;;
42600;SDS011;28229;48.856;9.088;2023-04-22T14:04:11;2.10;;;1.90;;
42600;SDS011;28229;48.856;9.088;2023-04-22T14:06:37;1.90;;;1.80;;
42600;SDS011;28229;48.856;9.088;2023-04-22T14:09:03;2.87;;;2.27;;
42600;SDS011;28229;48.856;9.088;2023-04-22T14:11:30;2.23;;;1.77;;
42600;SDS011;28229;48.856;9.088;2023-04-22T14:13:56;2.13;;;1.90;;
42600;SDS011;28229;48.856;9.088;2023-04-22T14:16:23;2.93;;;2.00;;
42600;SDS011;28229;48.856;9.088;2023-04-22T14:18:49;3.67;;;1.90;;
42600;SDS011;28229;48.856;9.088;2023-04-22T14:21:15;2.37;;;2.10;;
42600;SDS011;28229;48.856;9.088;2023-04-22T14:23:41;2.77;;;1.90;;
42600;SDS011;28229;48.856;9.088;2023-04-22T14:26:09;4.93;;;2.20;;
42600;SDS011;28229;48.856;9.088;2023-04-22T14:28:37;2.40;;;2.20;;
42600;SDS011;28229;48.856;9.088;2023-04-22T14:31:04;2.47;;;1.80;;
42600;SDS011;28229;48.856;9.088;2023-04-22T14:33:31;2.50;;;1.70;;
42600;SDS011;28229;48.856;9.088;2023-04-22T14:35:57;2.27;;;2.10;;
42600;SDS011;28229;48.856;9.088;2023-04-22T14:38:23;2.20;;;2.00;;
42600;SDS011;28229;48.856;9.088;2023-04-22T14:40:50;1.90;;;1.80;;
42600;SDS011;28229;48.856;9.088;2023-04-22T14:43:17;2.00;;;1.73;;
42600;SDS011;28229;48.856;9.088;2023-04-22T14:45:44;2.23;;;1.90;;
42600;SDS011;28229;48.856;9.088;2023-04-22T14:48:11;2.13;;;1.93;;
42600;SDS011;28229;48.856;9.088;2023-04-22T14:50:38;2.77;;;1.80;;
42600;SDS011;28229;48.856;9.088;2023-04-22T14:53:05;2.90;;;1.77;;
42600;SDS011;28229;48.856;9.088;2023-04-22T14:55:31;2.80;;;1.50;;
42600;SDS011;28229;48.856;9.088;2023-04-22T14:58:00;2.10;;;1.80;;
42600;SDS011;28229;48.856;9.088;2023-04-22T15:00:26;2.67;;;1.43;;
42600;SDS011;28229;48.856;9.088;2023-04-22T15:02:53;2.07;;;1.77;;
42600;SDS011;28229;48.856;9.088;2023-04-22T15:05:19;3.93;;;1.77;;
42600;SDS011;28229;48.856;9.088;2023-04-22T15:07:48;1.80;;;1.70;;
42600;SDS011;28229;48.856;9.088;2023-04-22T15:10:17;2.53;;;2.23;;
42600;SDS011;28229;48.856;9.088;2023-04-22T15:12:44;5.20;;;2.50;;
42600;SDS011;28229;48.856;9.088;2023-04-22T15:15:10;3.50;;;2.30;;
42600;SDS011;28229;48.856;9.088;2023-04-22T15:17:41;2.33;;;2.13;;
42600;SDS011;28229;48.856;9.088;2023-04-22T15:20:08;2.80;;;2.40;;
42600;SDS011;28229;48.856;9.088;2023-04-22T15:22:36;2.80;;;2.30;;